Time;durP1;ratioP1;P1;durP2;ratioP2;P2;SDS_P1;SDS_P2;PMS_P1;PMS_P2;Temp;Humidity;BMP_temperature;BMP_pressure;BME280_temperature;BME280_humidity;BME280_pressure;Samples;Min_cycle;Max_cycle;Signal;HPM_P1;HPM_P2
2022/11/14 00:00:50;;;;;;;;;;;18.70;99.90;;;;;;5069359;28;19935;-60
2022/11/14 00:03:35;;;;;;;;;;;18.70;99.90;;;;;;5077446;28;19932;-61
2022/11/14 00:06:21;;;;;;;;;;;18.60;99.90;;;;;;5086091;28;19942;-56
2022/11/14 00:09:06;;;;;;;;;;;18.60;99.90;;;;;;5071788;28;19931;-60
2022/11/14 00:11:51;;;;;;;;;;;18.60;99.90;;;;;;5070256;28;20368;-60
2022/11/14 00:14:37;;;;;;;;;;;18.60;99.90;;;;;;5064957;28;19932;-58
2022/11/14 00:17:22;;;;;;;;;;;18.60;99.90;;;;;;5082750;28;19928;-61
2022/11/14 00:20:09;;;;;;;;;;;18.60;99.90;;;;;;5080532;28;20398;-61
2022/11/14 00:22:56;;;;;;;;;;;18.50;99.90;;;;;;5078850;28;19950;-63
2022/11/14 00:25:45;;;;;;;;;;;18.60;99.90;;;;;;5081575;28;19935;-60
2022/11/14 00:28:31;;;;;;;;;;;18.50;99.90;;;;;;5082518;28;20308;-60
2022/11/14 00:31:17;;;;;;;;;;;18.50;99.90;;;;;;5082371;28;20418;-60
2022/11/14 00:34:03;;;;;;;;;;;18.50;99.90;;;;;;5070651;28;19932;-60
2022/11/14 00:36:48;;;;;;;;;;;18.50;99.90;;;;;;5069929;28;19931;-61
2022/11/14 00:39:34;;;;;;;;;;;18.50;99.90;;;;;;5067371;28;19931;-62
2022/11/14 00:42:19;;;;;;;;;;;18.50;99.90;;;;;;5082356;28;20448;-62
2022/11/14 00:45:05;;;;;;;;;;;18.40;99.90;;;;;;5083491;28;19938;-60
2022/11/14 00:47:50;;;;;;;;;;;18.40;99.90;;;;;;5069304;28;19925;-59
2022/11/14 00:50:36;;;;;;;;;;;18.40;99.90;;;;;;5070552;28;19931;-59
2022/11/14 00:53:22;;;;;;;;;;;18.40;99.90;;;;;;5088360;28;19931;-62
2022/11/14 00:56:07;;;;;;;;;;;18.40;99.90;;;;;;5076506;28;19932;-61
2022/11/14 00:58:53;;;;;;;;;;;18.40;99.90;;;;;;5075307;28;19932;-63
2022/11/14 01:01:39;;;;;;;;;;;18.30;99.90;;;;;;5083491;28;19935;-62
2022/11/14 01:04:24;;;;;;;;;;;18.30;99.90;;;;;;5060536;28;20599;-65
2022/11/14 01:07:10;;;;;;;;;;;18.30;99.90;;;;;;5092325;28;19936;-60
2022/11/14 01:09:55;;;;;;;;;;;18.30;99.90;;;;;;5081358;28;19939;-62
2022/11/14 01:12:40;;;;;;;;;;;18.30;99.90;;;;;;5082605;28;19943;-60
2022/11/14 01:15:26;;;;;;;;;;;18.30;99.90;;;;;;5072271;28;19935;-63
2022/11/14 01:18:13;;;;;;;;;;;18.30;99.90;;;;;;5080185;28;19935;-64
2022/11/14 01:20:59;;;;;;;;;;;18.20;99.90;;;;;;5067049;28;19928;-63
2022/11/14 01:23:44;;;;;;;;;;;18.20;99.90;;;;;;5076431;28;19929;-63
2022/11/14 01:26:30;;;;;;;;;;;18.20;99.90;;;;;;5076565;28;19935;-62
2022/11/14 01:29:15;;;;;;;;;;;18.20;99.90;;;;;;5079859;28;19939;-61
2022/11/14 01:32:01;;;;;;;;;;;18.20;99.90;;;;;;5068147;28;19948;-59
2022/11/14 01:34:46;;;;;;;;;;;18.20;99.90;;;;;;5073291;28;19928;-59
2022/11/14 01:37:32;;;;;;;;;;;18.20;99.90;;;;;;5074219;28;19951;-60
2022/11/14 01:40:17;;;;;;;;;;;18.20;99.90;;;;;;5075908;28;19998;-57
2022/11/14 01:43:15;;;;;;;;;;;18.20;99.90;;;;;;5072175;28;19929;-62
2022/11/14 01:46:05;;;;;;;;;;;18.20;99.90;;;;;;5081591;28;19938;-60
2022/11/14 01:48:52;;;;;;;;;;;18.10;99.90;;;;;;5086966;28;19947;-61
2022/11/14 01:51:44;;;;;;;;;;;18.10;99.90;;;;;;5078811;28;19931;-60
2022/11/14 01:54:34;;;;;;;;;;;18.10;99.90;;;;;;5076587;28;19928;-61
2022/11/14 01:57:21;;;;;;;;;;;18.10;99.90;;;;;;5062800;28;19929;-62
2022/11/14 02:00:09;;;;;;;;;;;18.10;99.90;;;;;;5079442;28;20509;-63
2022/11/14 02:02:56;;;;;;;;;;;18.10;99.90;;;;;;5083134;28;19935;-61
2022/11/14 02:05:43;;;;;;;;;;;18.10;99.90;;;;;;5063964;28;20363;-60
2022/11/14 02:08:29;;;;;;;;;;;18.10;99.90;;;;;;5078038;28;20423;-60
2022/11/14 02:11:15;;;;;;;;;;;18.00;99.90;;;;;;5071493;28;19951;-59
2022/11/14 02:14:00;;;;;;;;;;;18.00;99.90;;;;;;5074411;28;19925;-61
2022/11/14 02:16:47;;;;;;;;;;;18.00;99.90;;;;;;5059469;28;20431;-58
2022/11/14 02:19:56;;;;;;;;;;;18.00;99.90;;;;;;5060104;28;20011;-59
2022/11/14 02:22:48;;;;;;;;;;;18.00;99.90;;;;;;5076594;28;20423;-60
2022/11/14 02:25:34;;;;;;;;;;;18.00;99.90;;;;;;5073820;28;19951;-63
2022/11/14 02:28:20;;;;;;;;;;;18.00;99.90;;;;;;5086711;28;19982;-62
2022/11/14 02:31:06;;;;;;;;;;;18.00;99.90;;;;;;5066026;28;19951;-60
2022/11/14 02:33:51;;;;;;;;;;;18.00;99.90;;;;;;5065039;28;19948;-60
2022/11/14 02:36:36;;;;;;;;;;;18.00;99.90;;;;;;5072201;28;20313;-61
2022/11/14 02:39:22;;;;;;;;;;;18.00;99.90;;;;;;5074653;28;19932;-61
2022/11/14 02:42:08;;;;;;;;;;;17.90;99.90;;;;;;5067475;28;19928;-60
2022/11/14 02:44:53;;;;;;;;;;;17.90;99.90;;;;;;5068186;28;19951;-61
2022/11/14 02:47:39;;;;;;;;;;;17.90;99.90;;;;;;5068060;28;19928;-64
2022/11/14 02:50:24;;;;;;;;;;;17.90;99.90;;;;;;5083313;28;20301;-60
2022/11/14 02:53:10;;;;;;;;;;;17.90;99.90;;;;;;5075818;28;19936;-59
2022/11/14 02:55:55;;;;;;;;;;;17.90;99.90;;;;;;5065746;28;21914;-61
2022/11/14 02:58:41;;;;;;;;;;;17.90;99.90;;;;;;5064142;28;19935;-59
2022/11/14 03:01:26;;;;;;;;;;;17.90;99.90;;;;;;5084999;28;19959;-59
2022/11/14 03:04:12;;;;;;;;;;;17.90;99.90;;;;;;5073643;28;20388;-62
2022/11/14 03:06:57;;;;;;;;;;;17.90;99.90;;;;;;5080702;28;19931;-59
2022/11/14 03:09:43;;;;;;;;;;;17.80;99.90;;;;;;5090477;28;19930;-59
2022/11/14 03:12:28;;;;;;;;;;;17.80;99.90;;;;;;5085205;28;19928;-59
2022/11/14 03:15:14;;;;;;;;;;;17.80;99.90;;;;;;5074444;28;20311;-61
2022/11/14 03:17:59;;;;;;;;;;;17.80;99.90;;;;;;5075076;28;19999;-61
2022/11/14 03:20:45;;;;;;;;;;;17.80;99.90;;;;;;5077711;28;19929;-60
2022/11/14 03:23:30;;;;;;;;;;;17.80;99.90;;;;;;5076178;28;20331;-58
2022/11/14 03:26:16;;;;;;;;;;;17.80;99.90;;;;;;5082626;28;19925;-59
2022/11/14 03:29:01;;;;;;;;;;;17.80;99.90;;;;;;5075437;28;19928;-61
2022/11/14 03:31:47;;;;;;;;;;;17.80;99.90;;;;;;5075417;28;19939;-60
2022/11/14 03:34:33;;;;;;;;;;;17.80;99.90;;;;;;5076342;28;19925;-62
2022/11/14 03:37:18;;;;;;;;;;;17.80;99.90;;;;;;5076689;28;19928;-62
2022/11/14 03:40:04;;;;;;;;;;;17.70;99.90;;;;;;5072264;28;19929;-60
2022/11/14 03:42:50;;;;;;;;;;;17.70;99.90;;;;;;5076588;28;19931;-60
2022/11/14 03:45:36;;;;;;;;;;;17.70;99.90;;;;;;5072697;28;19932;-60
2022/11/14 03:48:22;;;;;;;;;;;17.80;99.90;;;;;;5076352;28;19960;-61
2022/11/14 03:51:08;;;;;;;;;;;17.80;99.90;;;;;;5075928;28;20327;-59
2022/11/14 03:53:53;;;;;;;;;;;17.80;99.90;;;;;;5074106;28;19932;-63
2022/11/14 03:56:39;;;;;;;;;;;17.80;99.90;;;;;;5085152;28;19928;-62
2022/11/14 03:59:25;;;;;;;;;;;17.80;99.90;;;;;;5079935;28;19959;-60
2022/11/14 04:02:10;;;;;;;;;;;17.80;99.90;;;;;;5086892;28;19962;-59
2022/11/14 04:04:56;;;;;;;;;;;17.80;99.90;;;;;;5082908;28;19940;-61
2022/11/14 04:07:42;;;;;;;;;;;17.70;99.90;;;;;;5068866;28;19951;-60
2022/11/14 04:10:27;;;;;;;;;;;17.70;99.90;;;;;;5087852;28;20927;-59
2022/11/14 04:13:13;;;;;;;;;;;17.70;99.90;;;;;;5073595;28;20554;-61
2022/11/14 04:15:58;;;;;;;;;;;17.70;99.90;;;;;;5069617;28;19935;-59
2022/11/14 04:18:44;;;;;;;;;;;17.70;99.90;;;;;;5070153;28;19939;-59
2022/11/14 04:21:29;;;;;;;;;;;17.70;99.90;;;;;;5080353;28;20409;-60
2022/11/14 04:24:15;;;;;;;;;;;17.70;99.90;;;;;;5055989;28;19929;-61
2022/11/14 04:27:00;;;;;;;;;;;17.70;99.90;;;;;;5080049;28;20313;-60
2022/11/14 04:29:46;;;;;;;;;;;17.70;99.90;;;;;;5070742;28;19924;-62
2022/11/14 04:32:31;;;;;;;;;;;17.70;99.90;;;;;;5078820;28;20406;-62
2022/11/14 04:35:17;;;;;;;;;;;17.70;99.90;;;;;;5066760;28;19940;-59
2022/11/14 04:38:03;;;;;;;;;;;17.70;99.90;;;;;;5084875;28;19925;-65
2022/11/14 04:40:52;;;;;;;;;;;17.70;99.90;;;;;;5082597;28;19931;-66
2022/11/14 04:43:38;;;;;;;;;;;17.70;99.90;;;;;;5073256;28;20342;-66
2022/11/14 04:46:23;;;;;;;;;;;17.70;99.90;;;;;;5073334;28;19935;-66
2022/11/14 04:49:08;;;;;;;;;;;17.60;99.90;;;;;;5076533;28;19931;-68
2022/11/14 04:51:54;;;;;;;;;;;17.70;99.90;;;;;;5069559;28;19931;-67
2022/11/14 04:54:39;;;;;;;;;;;17.70;99.90;;;;;;5065195;28;19928;-66
2022/11/14 04:57:25;;;;;;;;;;;17.80;99.90;;;;;;5079156;28;19955;-67
2022/11/14 05:00:11;;;;;;;;;;;17.90;99.90;;;;;;5072043;28;19928;-66
2022/11/14 05:02:58;;;;;;;;;;;18.10;99.90;;;;;;5082661;28;19935;-67
2022/11/14 05:05:44;;;;;;;;;;;18.30;99.90;;;;;;5091526;28;19939;-67
2022/11/14 05:08:29;;;;;;;;;;;18.50;99.90;;;;;;5084466;28;19928;-67
2022/11/14 05:11:18;;;;;;;;;;;18.70;99.90;;;;;;5090355;28;20472;-66
2022/11/14 05:14:03;;;;;;;;;;;18.80;99.90;;;;;;5069050;28;19930;-66
2022/11/14 05:16:49;;;;;;;;;;;18.80;99.90;;;;;;5058989;28;20299;-66
2022/11/14 05:19:34;;;;;;;;;;;18.90;99.90;;;;;;5075007;28;19935;-67
2022/11/14 05:22:19;;;;;;;;;;;18.90;99.90;;;;;;5075153;28;19928;-66
2022/11/14 05:25:05;;;;;;;;;;;18.90;99.90;;;;;;5068421;28;19944;-67
2022/11/14 05:27:51;;;;;;;;;;;18.80;99.90;;;;;;5064358;28;19959;-64
2022/11/14 05:30:36;;;;;;;;;;;18.90;99.90;;;;;;5085187;28;20327;-66
2022/11/14 05:33:22;;;;;;;;;;;18.90;99.90;;;;;;5074805;22;19952;-61
2022/11/14 05:36:09;;;;;;;;;;;18.90;99.90;;;;;;5038358;28;19936;-61
2022/11/14 05:38:55;;;;;;;;;;;18.90;99.90;;;;;;5056908;28;19935;-64
2022/11/14 05:41:41;;;;;;;;;;;18.90;99.90;;;;;;5056015;28;19932;-61
2022/11/14 05:44:26;;;;;;;;;;;18.90;99.90;;;;;;5050917;28;19925;-63
2022/11/14 05:47:11;;;;;;;;;;;18.90;99.90;;;;;;5047194;28;19932;-63
2022/11/14 05:49:57;;;;;;;;;;;18.90;99.90;;;;;;5054020;28;19955;-61
2022/11/14 05:52:42;;;;;;;;;;;18.90;99.90;;;;;;5055467;28;20416;-60
2022/11/14 05:55:28;;;;;;;;;;;18.80;99.90;;;;;;5047141;28;20347;-59
2022/11/14 05:58:13;;;;;;;;;;;18.90;99.90;;;;;;5056489;28;20163;-60
2022/11/14 06:01:02;;;;;;;;;;;18.80;99.90;;;;;;5051770;28;19929;-63
2022/11/14 06:03:48;;;;;;;;;;;18.80;99.90;;;;;;5044045;28;19932;-61
2022/11/14 06:06:34;;;;;;;;;;;18.90;99.90;;;;;;5047919;28;19943;-62
2022/11/14 06:09:19;;;;;;;;;;;19.00;99.90;;;;;;5048103;28;20321;-60
2022/11/14 06:12:06;;;;;;;;;;;19.00;99.90;;;;;;5045933;28;19931;-61
2022/11/14 06:14:52;;;;;;;;;;;19.00;99.90;;;;;;5048679;28;19928;-62
2022/11/14 06:17:37;;;;;;;;;;;19.10;99.90;;;;;;5057780;28;20418;-62
2022/11/14 06:20:23;;;;;;;;;;;19.20;99.90;;;;;;5053597;28;19925;-60
2022/11/14 06:23:08;;;;;;;;;;;19.20;99.90;;;;;;5056652;28;20129;-56
2022/11/14 06:25:59;;;;;;;;;;;19.30;99.90;;;;;;5052721;28;20439;-61
2022/11/14 06:28:45;;;;;;;;;;;19.40;99.90;;;;;;5049866;28;20332;-61
2022/11/14 06:31:30;;;;;;;;;;;19.40;99.90;;;;;;5053376;28;19935;-62
2022/11/14 06:34:16;;;;;;;;;;;19.40;99.90;;;;;;5035750;28;19944;-60
2022/11/14 06:37:03;;;;;;;;;;;19.50;99.90;;;;;;5056204;28;19952;-59
2022/11/14 06:39:48;;;;;;;;;;;19.40;99.90;;;;;;5039536;28;20224;-60
2022/11/14 06:42:34;;;;;;;;;;;19.40;99.90;;;;;;5041432;28;19929;-61
2022/11/14 06:45:19;;;;;;;;;;;19.40;99.90;;;;;;5046177;28;19933;-60
2022/11/14 06:48:05;;;;;;;;;;;19.40;99.90;;;;;;5037392;28;20296;-62
2022/11/14 06:50:52;;;;;;;;;;;19.40;99.90;;;;;;5048363;28;19932;-61
2022/11/14 06:53:37;;;;;;;;;;;19.40;99.90;;;;;;5038795;28;19935;-62
2022/11/14 06:56:23;;;;;;;;;;;19.40;99.90;;;;;;5045408;28;19925;-62
2022/11/14 06:59:09;;;;;;;;;;;19.40;99.90;;;;;;5054224;28;19932;-62
2022/11/14 07:01:54;;;;;;;;;;;19.40;99.90;;;;;;5049707;28;19940;-61
2022/11/14 07:04:40;;;;;;;;;;;19.40;99.90;;;;;;5055009;28;19931;-62
2022/11/14 07:07:26;;;;;;;;;;;19.30;99.90;;;;;;5051741;28;19933;-63
2022/11/14 07:10:13;;;;;;;;;;;19.30;99.90;;;;;;5053136;28;20304;-65
2022/11/14 07:12:58;;;;;;;;;;;19.30;99.90;;;;;;5040716;28;19925;-64
2022/11/14 07:15:53;;;;;;;;;;;19.20;99.90;;;;;;5045553;28;19944;-61
2022/11/14 07:18:39;;;;;;;;;;;19.20;99.90;;;;;;5050608;28;19944;-62
2022/11/14 07:21:26;;;;;;;;;;;19.20;99.90;;;;;;5040961;28;19936;-62
2022/11/14 07:24:12;;;;;;;;;;;19.10;99.90;;;;;;5042558;28;19939;-61
2022/11/14 07:26:57;;;;;;;;;;;18.00;99.90;;;;;;5051932;28;19935;-62
2022/11/14 07:29:43;;;;;;;;;;;17.80;99.90;;;;;;5043963;28;20415;-63
2022/11/14 07:32:28;;;;;;;;;;;18.10;99.90;;;;;;5051384;28;20513;-61
2022/11/14 07:35:14;;;;;;;;;;;18.40;99.90;;;;;;5052015;28;19933;-62
2022/11/14 07:38:01;;;;;;;;;;;18.60;99.90;;;;;;5049865;28;19933;-62
2022/11/14 07:40:57;;;;;;;;;;;18.70;99.90;;;;;;5047024;28;19944;-58
2022/11/14 07:43:44;;;;;;;;;;;18.90;99.90;;;;;;5043834;28;19929;-60
2022/11/14 07:46:30;;;;;;;;;;;19.10;99.90;;;;;;5046245;28;20459;-64
2022/11/14 07:49:16;;;;;;;;;;;19.10;99.90;;;;;;5053876;28;20304;-63
2022/11/14 07:52:02;;;;;;;;;;;19.20;99.90;;;;;;5049560;28;19929;-63
2022/11/14 07:54:47;;;;;;;;;;;19.20;99.90;;;;;;5052626;28;19932;-66
2022/11/14 07:57:33;;;;;;;;;;;19.40;99.90;;;;;;5052319;28;19925;-65
2022/11/14 08:00:25;;;;;;;;;;;19.60;99.90;;;;;;5052179;28;19952;-63
2022/11/14 08:03:11;;;;;;;;;;;19.90;99.90;;;;;;5054725;28;19932;-64
2022/11/14 08:06:04;;;;;;;;;;;20.20;99.90;;;;;;5049864;28;19992;-60
2022/11/14 08:08:49;;;;;;;;;;;20.40;99.90;;;;;;5049370;28;19939;-61
2022/11/14 08:11:47;;;;;;;;;;;20.40;99.90;;;;;;5051868;28;19929;-60
2022/11/14 08:14:33;;;;;;;;;;;20.50;99.90;;;;;;5050523;28;19925;-57
2022/11/14 08:17:19;;;;;;;;;;;20.50;99.90;;;;;;5055829;28;19951;-60
2022/11/14 08:20:06;;;;;;;;;;;20.50;99.90;;;;;;5043799;28;19929;-61
2022/11/14 08:22:52;;;;;;;;;;;20.50;99.90;;;;;;5048222;28;20746;-61
2022/11/14 08:25:38;;;;;;;;;;;20.50;99.90;;;;;;5043566;28;20398;-60
2022/11/14 08:28:23;;;;;;;;;;;20.40;99.90;;;;;;5054639;28;19932;-58
2022/11/14 08:31:09;;;;;;;;;;;20.40;99.90;;;;;;5040502;28;19932;-60
2022/11/14 08:33:55;;;;;;;;;;;20.40;99.90;;;;;;5038746;28;20416;-60
2022/11/14 08:36:41;;;;;;;;;;;20.30;99.90;;;;;;5051443;28;20308;-65
2022/11/14 08:39:26;;;;;;;;;;;20.20;99.90;;;;;;5054949;28;20404;-62
2022/11/14 08:42:11;;;;;;;;;;;20.20;99.90;;;;;;5045623;28;19932;-64
2022/11/14 08:44:57;;;;;;;;;;;20.20;99.90;;;;;;5041400;28;20296;-63
2022/11/14 08:47:49;;;;;;;;;;;20.20;99.90;;;;;;5058928;28;19928;-63
2022/11/14 08:50:34;;;;;;;;;;;20.10;99.90;;;;;;5057968;28;20019;-62
2022/11/14 08:53:20;;;;;;;;;;;20.20;99.90;;;;;;5049906;28;19940;-69
2022/11/14 08:56:06;;;;;;;;;;;20.20;99.90;;;;;;5050338;28;19925;-65
2022/11/14 08:58:51;;;;;;;;;;;20.10;99.90;;;;;;5053108;28;19932;-64
2022/11/14 09:01:37;;;;;;;;;;;20.10;99.90;;;;;;5047702;28;20142;-62
2022/11/14 09:04:22;;;;;;;;;;;20.10;99.90;;;;;;5042176;28;19924;-66
2022/11/14 09:07:08;;;;;;;;;;;20.10;99.90;;;;;;5050665;28;20031;-63
2022/11/14 09:09:54;;;;;;;;;;;20.00;99.90;;;;;;5058358;28;19936;-65
2022/11/14 09:12:39;;;;;;;;;;;20.00;99.90;;;;;;5055685;28;19940;-65
2022/11/14 09:15:28;;;;;;;;;;;20.00;99.90;;;;;;5047789;28;20415;-63
2022/11/14 09:18:14;;;;;;;;;;;19.90;99.90;;;;;;5050728;28;20335;-61
2022/11/14 09:21:00;;;;;;;;;;;19.90;99.90;;;;;;5046995;28;19936;-65
2022/11/14 09:23:46;;;;;;;;;;;19.90;99.90;;;;;;5046937;28;19928;-63
2022/11/14 09:26:32;;;;;;;;;;;19.90;99.90;;;;;;5050199;28;19925;-60
2022/11/14 09:29:18;;;;;;;;;;;19.80;99.90;;;;;;5040880;28;20046;-61
2022/11/14 09:32:03;;;;;;;;;;;19.80;99.90;;;;;;5049711;28;19936;-62
2022/11/14 09:34:49;;;;;;;;;;;19.80;99.90;;;;;;5044818;28;20247;-65
2022/11/14 09:37:35;;;;;;;;;;;19.70;99.90;;;;;;5058466;28;19936;-63
2022/11/14 09:40:20;;;;;;;;;;;19.70;99.90;;;;;;5053069;28;19932;-59
2022/11/14 09:43:20;;;;;;;;;;;19.70;99.90;;;;;;5051868;28;19932;-61
2022/11/14 09:46:16;;;;;;;;;;;19.70;99.90;;;;;;5046774;28;19929;-59
2022/11/14 09:49:02;;;;;;;;;;;19.60;99.90;;;;;;5050822;28;19932;-61
2022/11/14 09:51:55;;;;;;;;;;;19.60;99.90;;;;;;5038988;28;19924;-60
2022/11/14 09:55:01;;;;;;;;;;;19.60;99.90;;;;;;5041021;28;19952;-62
2022/11/14 09:57:47;;;;;;;;;;;19.60;99.90;;;;;;5046605;28;19939;-62
2022/11/14 10:00:49;;;;;;;;;;;19.50;99.90;;;;;;5053380;28;19932;-61
2022/11/14 10:03:50;;;;;;;;;;;19.50;99.90;;;;;;5045963;28;19936;-60
2022/11/14 10:06:38;;;;;;;;;;;19.50;99.90;;;;;;5051372;28;19932;-57
2022/11/14 10:09:24;;;;;;;;;;;19.50;99.90;;;;;;5056587;28;20408;-59
2022/11/14 10:12:24;;;;;;;;;;;19.50;99.90;;;;;;5058175;28;19928;-61
2022/11/14 10:15:22;;;;;;;;;;;19.50;99.90;;;;;;5054010;28;19933;-60
2022/11/14 10:18:08;;;;;;;;;;;19.50;99.90;;;;;;5050691;28;19948;-58
2022/11/14 10:20:55;;;;;;;;;;;19.50;99.90;;;;;;5048462;28;19931;-54
2022/11/14 10:23:47;;;;;;;;;;;19.50;99.90;;;;;;5044780;28;19935;-60
2022/11/14 10:26:36;;;;;;;;;;;19.50;99.90;;;;;;5040478;28;19925;-59
2022/11/14 10:29:37;;;;;;;;;;;19.50;99.90;;;;;;5043567;28;20149;-60
2022/11/14 10:32:35;;;;;;;;;;;19.40;99.90;;;;;;5037485;28;19936;-61
2022/11/14 10:35:23;;;;;;;;;;;19.40;99.90;;;;;;5053407;28;20019;-59
2022/11/14 10:38:12;;;;;;;;;;;19.40;99.90;;;;;;5059548;28;19932;-56
2022/11/14 10:40:59;;;;;;;;;;;19.40;99.90;;;;;;5063637;28;19939;-60
2022/11/14 10:43:46;;;;;;;;;;;19.40;99.90;;;;;;5052885;28;19940;-60
2022/11/14 10:46:35;;;;;;;;;;;19.40;99.90;;;;;;5050883;28;19924;-60
2022/11/14 10:49:22;;;;;;;;;;;19.40;99.90;;;;;;5043574;28;20410;-56
2022/11/14 10:52:13;;;;;;;;;;;19.40;99.90;;;;;;5049800;28;19948;-57
2022/11/14 10:55:02;;;;;;;;;;;19.40;99.90;;;;;;5043146;28;19931;-62
2022/11/14 10:57:47;;;;;;;;;;;19.40;99.90;;;;;;5046581;28;19932;-59
2022/11/14 11:00:33;;;;;;;;;;;19.30;99.90;;;;;;5045041;28;19925;-58
2022/11/14 11:03:18;;;;;;;;;;;19.30;99.90;;;;;;5042289;28;19956;-59
2022/11/14 11:06:04;;;;;;;;;;;19.30;99.90;;;;;;5052457;28;20422;-61
2022/11/14 11:12:00;;;;;;;;;;;19.20;99.90;;;;;;5049230;28;19929;-62
2022/11/14 11:14:47;;;;;;;;;;;19.20;99.90;;;;;;5047323;28;19935;-56
2022/11/14 11:17:33;;;;;;;;;;;19.20;99.90;;;;;;5046438;28;19924;-60
2022/11/14 11:20:32;;;;;;;;;;;19.20;99.90;;;;;;5055049;28;19943;-58
2022/11/14 11:23:21;;;;;;;;;;;19.20;99.90;;;;;;5052371;28;19924;-57
2022/11/14 11:26:14;;;;;;;;;;;19.20;99.90;;;;;;5053986;28;19929;-63
2022/11/14 11:29:13;;;;;;;;;;;19.10;99.90;;;;;;5040267;28;19928;-61
2022/11/14 11:31:59;;;;;;;;;;;19.10;99.90;;;;;;5064555;28;19935;-59
2022/11/14 11:34:45;;;;;;;;;;;19.10;99.90;;;;;;5059806;28;19931;-61
2022/11/14 11:37:53;;;;;;;;;;;19.10;99.90;;;;;;5058116;28;20503;-58
2022/11/14 11:40:40;;;;;;;;;;;19.10;99.90;;;;;;5053363;28;20296;-61
2022/11/14 11:43:38;;;;;;;;;;;19.10;99.90;;;;;;5044185;28;19943;-61
2022/11/14 11:46:43;;;;;;;;;;;19.10;99.90;;;;;;5053901;28;20364;-59
2022/11/14 11:49:28;;;;;;;;;;;19.20;99.90;;;;;;5053740;28;19929;-61
2022/11/14 11:52:30;;;;;;;;;;;19.20;99.90;;;;;;5056530;28;20419;-59
2022/11/14 11:55:19;;;;;;;;;;;19.30;99.90;;;;;;5048589;28;19952;-59
2022/11/14 11:58:09;;;;;;;;;;;19.20;99.90;;;;;;5052693;28;19932;-62
2022/11/14 12:00:54;;;;;;;;;;;19.20;99.90;;;;;;5050746;28;20367;-60
2022/11/14 12:03:42;;;;;;;;;;;19.30;99.90;;;;;;5049537;28;20242;-64
2022/11/14 12:06:30;;;;;;;;;;;19.40;99.90;;;;;;5056457;28;20319;-65
2022/11/14 12:09:37;;;;;;;;;;;19.50;99.90;;;;;;5054524;28;19932;-68
2022/11/14 12:12:42;;;;;;;;;;;19.60;99.90;;;;;;5059207;28;19933;-61
2022/11/14 12:15:41;;;;;;;;;;;19.70;99.90;;;;;;5061377;28;19939;-62
2022/11/14 12:18:34;;;;;;;;;;;19.70;99.90;;;;;;5052574;28;19987;-62
2022/11/14 12:21:40;;;;;;;;;;;19.60;99.90;;;;;;5049160;28;19929;-60
2022/11/14 12:24:49;;;;;;;;;;;19.70;99.90;;;;;;5048444;28;19932;-61
2022/11/14 12:27:53;;;;;;;;;;;19.70;99.90;;;;;;5049679;28;19932;-59
2022/11/14 12:30:40;;;;;;;;;;;19.70;99.90;;;;;;5037810;28;19929;-55
2022/11/14 12:33:28;;;;;;;;;;;19.60;99.90;;;;;;5046882;28;20423;-58
2022/11/14 12:36:15;;;;;;;;;;;19.60;99.90;;;;;;5049565;28;19933;-58
2022/11/14 12:39:01;;;;;;;;;;;19.60;99.90;;;;;;5043576;28;20396;-58
2022/11/14 12:41:47;;;;;;;;;;;19.60;99.90;;;;;;5047823;28;19931;-58
2022/11/14 12:44:34;;;;;;;;;;;19.50;99.90;;;;;;5047919;28;19932;-59
2022/11/14 12:47:21;;;;;;;;;;;19.50;99.90;;;;;;5049292;28;19929;-60
2022/11/14 12:50:38;;;;;;;;;;;19.50;99.90;;;;;;5052174;28;20131;-61
2022/11/14 12:53:36;;;;;;;;;;;19.50;99.90;;;;;;5050802;28;20019;-57
2022/11/14 12:56:27;;;;;;;;;;;19.50;99.90;;;;;;5060809;28;19947;-62
2022/11/14 12:59:13;;;;;;;;;;;19.50;99.90;;;;;;5063359;28;19939;-59
2022/11/14 13:02:09;;;;;;;;;;;19.40;99.90;;;;;;5055943;28;19939;-56
2022/11/14 13:05:15;;;;;;;;;;;19.50;99.90;;;;;;5060960;28;20313;-60
2022/11/14 13:08:10;;;;;;;;;;;19.50;99.90;;;;;;5051528;28;20325;-57
2022/11/14 13:10:56;;;;;;;;;;;19.50;99.90;;;;;;5053433;28;19940;-61
2022/11/14 13:23:41;;;;;;;;;;;19.50;99.90;;;;;;5049628;28;19936;-65
2022/11/14 13:26:30;;;;;;;;;;;19.60;99.90;;;;;;5049920;28;19928;-62
2022/11/14 13:29:34;;;;;;;;;;;19.70;99.90;;;;;;5049075;28;19929;-60
2022/11/14 13:32:39;;;;;;;;;;;19.70;99.90;;;;;;5047811;28;19929;-62
2022/11/14 13:35:43;;;;;;;;;;;19.60;99.90;;;;;;5052858;28;19931;-65
2022/11/14 13:38:29;;;;;;;;;;;19.60;99.90;;;;;;5046752;28;20557;-64
2022/11/14 13:41:20;;;;;;;;;;;19.60;99.90;;;;;;5050636;28;19929;-65
2022/11/14 13:44:27;;;;;;;;;;;19.60;99.90;;;;;;5047253;28;19925;-65
2022/11/14 13:47:31;;;;;;;;;;;19.60;99.90;;;;;;5057810;28;19940;-63
2022/11/14 13:50:19;;;;;;;;;;;19.60;99.90;;;;;;5056833;28;20304;-63
2022/11/14 13:53:22;;;;;;;;;;;19.60;99.90;;;;;;5046436;28;19929;-65
2022/11/14 13:56:11;;;;;;;;;;;19.60;99.90;;;;;;5053895;28;19932;-65
2022/11/14 13:59:13;;;;;;;;;;;19.60;99.90;;;;;;5041553;28;20025;-64
2022/11/14 14:02:22;;;;;;;;;;;19.60;99.90;;;;;;5048104;28;19940;-61
2022/11/14 14:05:26;;;;;;;;;;;19.60;99.90;;;;;;5040740;28;19943;-62
2022/11/14 14:08:31;;;;;;;;;;;19.60;99.90;;;;;;5051279;28;19947;-61
2022/11/14 14:11:19;;;;;;;;;;;19.60;99.90;;;;;;5043128;28;19936;-61
2022/11/14 14:14:23;;;;;;;;;;;19.60;99.90;;;;;;5044559;28;19929;-59
2022/11/14 14:17:17;;;;;;;;;;;19.60;99.90;;;;;;5054126;28;20286;-60
2022/11/14 14:20:25;;;;;;;;;;;19.50;99.90;;;;;;5044596;28;20383;-57
2022/11/14 14:23:26;;;;;;;;;;;19.60;99.90;;;;;;5046180;28;20011;-59
2022/11/14 14:26:11;;;;;;;;;;;19.50;99.90;;;;;;5051268;28;19935;-60
2022/11/14 14:29:02;;;;;;;;;;;19.50;99.90;;;;;;5052022;28;19925;-60
2022/11/14 14:31:51;;;;;;;;;;;19.50;99.90;;;;;;5048249;28;19951;-62
2022/11/14 14:34:38;;;;;;;;;;;19.50;99.90;;;;;;5042926;28;19936;-58
2022/11/14 14:37:25;;;;;;;;;;;19.50;99.90;;;;;;5048943;28;19936;-58
2022/11/14 14:40:22;;;;;;;;;;;19.50;99.90;;;;;;5046465;28;19932;-58
2022/11/14 14:43:12;;;;;;;;;;;19.50;99.90;;;;;;5046068;28;19951;-62
2022/11/14 14:45:58;;;;;;;;;;;19.50;99.90;;;;;;5054860;28;19941;-60
2022/11/14 14:48:43;;;;;;;;;;;19.50;99.90;;;;;;5050448;28;19939;-59
2022/11/14 14:51:34;;;;;;;;;;;19.50;99.90;;;;;;5063148;28;19928;-59
2022/11/14 14:54:21;;;;;;;;;;;19.40;99.90;;;;;;5051946;28;19929;-58
2022/11/14 14:57:15;;;;;;;;;;;19.40;99.90;;;;;;5064026;28;19936;-59
2022/11/14 15:00:04;;;;;;;;;;;19.40;99.90;;;;;;5049741;28;19947;-60
2022/11/14 15:02:52;;;;;;;;;;;19.40;99.90;;;;;;5046923;28;19936;-60
2022/11/14 15:05:38;;;;;;;;;;;19.50;99.90;;;;;;5056884;28;19925;-60
2022/11/14 15:08:24;;;;;;;;;;;19.60;99.90;;;;;;5049636;28;19932;-60
2022/11/14 15:11:10;;;;;;;;;;;19.60;99.90;;;;;;5055968;28;19929;-60
2022/11/14 15:13:57;;;;;;;;;;;19.60;99.90;;;;;;5053008;28;19931;-61
2022/11/14 15:16:43;;;;;;;;;;;19.70;99.90;;;;;;5047369;28;19932;-60
2022/11/14 15:19:36;;;;;;;;;;;19.70;99.90;;;;;;5051896;28;19929;-60
2022/11/14 15:22:23;;;;;;;;;;;19.70;99.90;;;;;;5049574;28;19936;-63
2022/11/14 15:25:09;;;;;;;;;;;19.70;99.90;;;;;;5053736;28;20409;-60
2022/11/14 15:27:57;;;;;;;;;;;19.70;99.90;;;;;;5055725;28;19932;-60
2022/11/14 15:30:54;;;;;;;;;;;19.70;99.90;;;;;;5057081;28;19951;-60
2022/11/14 15:33:40;;;;;;;;;;;19.60;99.90;;;;;;5046783;28;19951;-58
2022/11/14 15:36:25;;;;;;;;;;;19.60;99.90;;;;;;5043877;28;20004;-61
2022/11/14 15:39:22;;;;;;;;;;;19.60;99.90;;;;;;5059803;28;19925;-57
2022/11/14 15:42:25;;;;;;;;;;;19.60;99.90;;;;;;5052994;28;19925;-60
2022/11/14 15:45:21;;;;;;;;;;;19.50;99.90;;;;;;5050633;28;19929;-60
2022/11/14 15:48:11;;;;;;;;;;;19.50;99.90;;;;;;5051570;28;19924;-59
2022/11/14 15:50:57;;;;;;;;;;;19.50;99.90;;;;;;5058464;28;19932;-61
2022/11/14 15:53:47;;;;;;;;;;;19.50;99.90;;;;;;5045744;28;19936;-60
2022/11/14 15:56:34;;;;;;;;;;;19.50;99.90;;;;;;5050919;28;20486;-58
2022/11/14 15:59:19;;;;;;;;;;;19.40;99.90;;;;;;5084618;22;19939;-58
2022/11/14 16:02:14;;;;;;;;;;;19.40;99.90;;;;;;5079969;28;19929;-63
2022/11/14 16:05:02;;;;;;;;;;;19.40;99.90;;;;;;5070030;28;19941;-62
2022/11/14 16:07:48;;;;;;;;;;;19.40;99.90;;;;;;5081177;28;19932;-58
2022/11/14 16:10:33;;;;;;;;;;;19.40;99.90;;;;;;5059082;28;19932;-55
2022/11/14 16:13:19;;;;;;;;;;;19.40;99.90;;;;;;5062502;28;20447;-62
2022/11/14 16:16:05;;;;;;;;;;;19.40;99.90;;;;;;5059824;28;19975;-61
2022/11/14 16:18:51;;;;;;;;;;;19.30;99.90;;;;;;5052065;28;19925;-61
2022/11/14 16:21:36;;;;;;;;;;;19.30;99.90;;;;;;5055524;28;19936;-61
2022/11/14 16:24:22;;;;;;;;;;;19.30;99.90;;;;;;5055861;28;19939;-62
2022/11/14 16:27:08;;;;;;;;;;;19.30;99.90;;;;;;5055238;28;19940;-61
2022/11/14 16:29:53;;;;;;;;;;;19.30;99.90;;;;;;5050283;28;19932;-59
2022/11/14 16:32:40;;;;;;;;;;;19.40;99.90;;;;;;5057674;28;19935;-60